createdAt,value
2023-04-18T00:00:15.291Z,3.64
2023-04-18T00:01:18.809Z,3.61
2023-04-18T00:02:23.604Z,3.66
2023-04-18T00:03:27.174Z,3.67
2023-04-18T00:04:35.162Z,3.70
2023-04-18T00:05:38.068Z,3.69
2023-04-18T00:06:42.737Z,3.70
2023-04-18T00:07:45.104Z,3.73
2023-04-18T00:08:49.745Z,3.68
2023-04-18T00:09:51.981Z,3.64
2023-04-18T00:10:57.003Z,3.68
2023-04-18T00:11:59.105Z,3.69
2023-04-18T00:13:04.052Z,3.69
2023-04-18T00:14:06.456Z,3.73
2023-04-18T00:15:12.947Z,3.78
2023-04-18T00:16:15.893Z,3.86
2023-04-18T00:17:21.394Z,3.89
2023-04-18T00:18:26.765Z,3.93
2023-04-18T00:19:34.491Z,3.96
2023-04-18T00:20:39.181Z,4.01
2023-04-18T00:21:45.188Z,4.06
2023-04-18T00:22:47.951Z,4.07
2023-04-18T00:23:52.696Z,4.18
2023-04-18T00:24:54.978Z,4.20
2023-04-18T00:25:59.741Z,4.21
2023-04-18T00:27:02.219Z,4.30
2023-04-18T00:28:07.017Z,4.34
2023-04-18T00:29:09.116Z,4.35
2023-04-18T00:30:14.689Z,4.39
2023-04-18T00:31:16.789Z,4.38
2023-04-18T00:32:21.585Z,4.42
2023-04-18T00:33:23.794Z,4.40
2023-04-18T00:34:28.705Z,4.36
2023-04-18T00:35:33.380Z,4.42
2023-04-18T00:36:38.112Z,4.41
2023-04-18T00:37:40.229Z,4.39
2023-04-18T00:38:44.890Z,4.31
2023-04-18T00:39:47.016Z,4.29
2023-04-18T00:40:51.646Z,4.25
2023-04-18T00:41:53.849Z,4.21
2023-04-18T00:42:58.972Z,4.21
2023-04-18T00:44:01.171Z,4.22
2023-04-18T00:45:06.107Z,4.21
2023-04-18T00:46:08.306Z,4.21
2023-04-18T00:47:13.471Z,4.18
2023-04-18T00:48:16.124Z,4.19
2023-04-18T00:49:20.812Z,4.15
2023-04-18T00:50:23.738Z,4.13
2023-04-18T00:51:31.241Z,4.13
2023-04-18T00:52:36.088Z,4.14
2023-04-18T00:53:41.038Z,4.13
2023-04-18T00:54:44.315Z,4.14
2023-04-18T00:55:49.073Z,4.19
2023-04-18T00:56:51.772Z,4.19
2023-04-18T00:57:56.554Z,4.21
2023-04-18T00:58:59.490Z,4.20
2023-04-18T01:00:07.340Z,4.19
2023-04-18T01:01:10.198Z,4.24
2023-04-18T01:02:14.976Z,4.32
2023-04-18T01:03:18.608Z,4.35
2023-04-18T01:04:23.478Z,4.40
2023-04-18T01:05:27.591Z,4.38
2023-04-18T01:06:35.080Z,4.40
2023-04-18T01:07:40.879Z,4.44
2023-04-18T01:08:47.350Z,4.46
2023-04-18T01:09:49.568Z,4.47
2023-04-18T01:10:54.529Z,4.48
2023-04-18T01:11:56.995Z,4.46
2023-04-18T01:13:13.270Z,4.47
2023-04-18T01:14:16.076Z,4.49
2023-04-18T01:15:20.790Z,4.54
2023-04-18T01:16:22.891Z,4.54
2023-04-18T01:17:28.650Z,4.54
2023-04-18T01:18:35.387Z,4.56
2023-04-18T01:19:38.044Z,4.57
2023-04-18T01:20:45.978Z,4.53
2023-04-18T01:21:53.745Z,4.57
2023-04-18T01:23:00.122Z,4.63
2023-04-18T01:24:13.768Z,4.64
2023-04-18T01:25:16.013Z,4.62
2023-04-18T01:26:20.796Z,4.63
2023-04-18T01:27:23.014Z,4.63
2023-04-18T01:28:27.925Z,4.62
2023-04-18T01:29:30.096Z,4.59
2023-04-18T01:30:35.043Z,4.60
2023-04-18T01:31:37.763Z,4.59
2023-04-18T01:32:42.569Z,4.56
2023-04-18T01:33:44.652Z,4.57
2023-04-18T01:34:49.401Z,4.58
2023-04-18T01:35:51.777Z,4.62
2023-04-18T01:36:56.524Z,4.64
2023-04-18T01:37:58.983Z,4.64
2023-04-18T01:39:03.778Z,4.59
2023-04-18T01:40:10.007Z,4.60
2023-04-18T01:41:14.761Z,4.64
2023-04-18T01:42:16.986Z,4.56
2023-04-18T01:43:21.744Z,4.59
2023-04-18T01:44:23.812Z,4.58
2023-04-18T01:45:28.563Z,4.61
2023-04-18T01:46:30.850Z,4.58
2023-04-18T01:47:35.523Z,4.57
2023-04-18T01:48:37.808Z,4.62
2023-04-18T01:49:46.800Z,4.57
2023-04-18T01:50:48.902Z,4.55
2023-04-18T01:51:53.541Z,4.53
2023-04-18T01:52:55.719Z,4.52
2023-04-18T01:54:00.508Z,4.53
2023-04-18T01:55:03.707Z,4.55
2023-04-18T01:56:11.093Z,4.55
2023-04-18T01:57:13.227Z,4.54
2023-04-18T01:58:18.927Z,4.50
2023-04-18T01:59:21.053Z,4.52
2023-04-18T02:00:26.178Z,4.51
2023-04-18T02:01:28.313Z,4.53
2023-04-18T02:02:33.109Z,4.55
2023-04-18T02:03:35.736Z,4.55
2023-04-18T02:04:40.576Z,4.55
2023-04-18T02:05:42.745Z,4.51
2023-04-18T02:08:18.425Z,4.52
2023-04-18T02:09:21.255Z,4.48
2023-04-18T02:10:26.184Z,4.51
2023-04-18T02:11:30.942Z,4.52
2023-04-18T02:12:35.714Z,4.53
2023-04-18T02:13:37.815Z,4.50
2023-04-18T02:14:42.834Z,4.49
2023-04-18T02:15:45.405Z,4.48
2023-04-18T02:16:50.266Z,4.46
2023-04-18T02:17:53.704Z,4.47
2023-04-18T02:18:58.368Z,4.47
2023-04-18T02:20:01.121Z,4.53
2023-04-18T02:21:06.085Z,4.49
2023-04-18T02:22:08.206Z,4.48
2023-04-18T02:23:12.895Z,4.52
2023-04-18T02:24:15.157Z,4.49
2023-04-18T02:25:23.727Z,4.58
2023-04-18T02:26:25.942Z,4.62
2023-04-18T02:27:33.146Z,4.59
2023-04-18T02:28:35.306Z,4.58
2023-04-18T02:29:40.127Z,4.58
2023-04-18T02:30:42.175Z,4.61
2023-04-18T02:31:46.872Z,4.60
2023-04-18T02:32:52.278Z,4.57
2023-04-18T02:33:56.983Z,4.57
2023-04-18T02:34:59.061Z,4.54
2023-04-18T02:36:04.520Z,4.55
2023-04-18T02:37:06.527Z,4.55
2023-04-18T02:38:11.175Z,4.53
2023-04-18T02:39:13.260Z,4.55
2023-04-18T02:40:18.068Z,4.51
2023-04-18T02:41:20.399Z,4.52
2023-04-18T02:42:25.122Z,4.49
2023-04-18T02:43:29.927Z,4.50
2023-04-18T02:44:34.578Z,4.46
2023-04-18T02:45:36.739Z,4.46
2023-04-18T02:46:41.592Z,4.44
2023-04-18T02:47:54.348Z,4.48
2023-04-18T02:49:01.095Z,4.48
2023-04-18T02:50:03.667Z,4.46
2023-04-18T02:51:09.850Z,4.49
2023-04-18T02:52:12.076Z,4.50
2023-04-18T02:53:16.942Z,4.44
2023-04-18T02:54:19.099Z,4.43
2023-04-18T02:55:24.617Z,4.47
2023-04-18T02:56:26.836Z,4.45
2023-04-18T02:57:31.585Z,4.42
2023-04-18T02:58:36.861Z,4.42
2023-04-18T02:59:41.460Z,4.45
2023-04-18T03:00:43.473Z,4.49
2023-04-18T03:01:48.335Z,4.45
2023-04-18T03:02:50.793Z,4.49
2023-04-18T03:03:55.771Z,4.45
2023-04-18T03:04:57.944Z,4.47
2023-04-18T03:06:03.082Z,4.55
2023-04-18T03:07:05.218Z,4.51
2023-04-18T03:08:10.091Z,4.48
2023-04-18T03:09:12.199Z,4.49
2023-04-18T03:10:17.167Z,4.53
2023-04-18T03:11:19.219Z,4.52
2023-04-18T03:12:24.028Z,4.52
2023-04-18T03:13:26.178Z,4.56
2023-04-18T03:14:33.466Z,4.56
2023-04-18T03:15:35.582Z,4.54
2023-04-18T03:16:40.290Z,4.57
2023-04-18T03:17:43.623Z,4.58
2023-04-18T03:18:48.397Z,4.59
2023-04-18T03:19:50.615Z,4.51
2023-04-18T03:20:55.284Z,4.53
2023-04-18T03:22:27.364Z,4.54
2023-04-18T03:23:32.144Z,4.54
2023-04-18T03:24:34.245Z,4.56
2023-04-18T03:25:39.009Z,4.58
2023-04-18T03:26:41.137Z,4.51
2023-04-18T03:27:45.832Z,4.54
2023-04-18T03:28:50.492Z,4.57
2023-04-18T03:29:55.193Z,4.57
2023-04-18T03:30:59.876Z,4.56
2023-04-18T03:32:02.028Z,4.57
2023-04-18T03:33:06.837Z,4.61
2023-04-18T03:34:08.983Z,4.63
2023-04-18T03:35:13.993Z,4.65
2023-04-18T03:36:19.401Z,4.66
2023-04-18T03:37:21.487Z,4.62
2023-04-18T03:38:26.248Z,4.66
2023-04-18T03:39:28.348Z,4.63
2023-04-18T03:40:33.052Z,4.67
2023-04-18T03:41:35.178Z,4.66
2023-04-18T03:42:39.824Z,4.61
2023-04-18T03:43:41.848Z,4.61
2023-04-18T03:44:46.623Z,4.63
2023-04-18T03:45:54.033Z,4.63
2023-04-18T03:46:56.318Z,4.68
2023-04-18T03:48:00.990Z,4.68
2023-04-18T03:49:03.524Z,4.66
2023-04-18T03:50:09.613Z,4.65
2023-04-18T03:51:11.786Z,4.64
2023-04-18T03:52:16.462Z,4.67
2023-04-18T03:53:18.692Z,4.61
2023-04-18T03:54:23.448Z,4.63
2023-04-18T03:55:26.019Z,4.65
2023-04-18T03:56:30.712Z,4.64
2023-04-18T03:57:32.918Z,4.65
2023-04-18T03:58:37.626Z,4.66
2023-04-18T03:59:39.719Z,4.72
2023-04-18T04:00:44.426Z,4.62
2023-04-18T04:01:49.207Z,4.65
2023-04-18T04:02:54.335Z,4.67
2023-04-18T04:03:59.337Z,4.68
2023-04-18T04:05:02.837Z,4.70
2023-04-18T04:06:08.359Z,4.71
2023-04-18T04:07:11.005Z,4.68
2023-04-18T04:08:16.813Z,4.68
2023-04-18T04:09:19.075Z,4.64
2023-04-18T04:10:23.847Z,4.74
2023-04-18T04:11:26.971Z,4.66
2023-04-18T04:12:31.769Z,4.66
2023-04-18T04:13:33.904Z,4.67
2023-04-18T04:14:38.636Z,4.65
2023-04-18T04:15:40.919Z,4.70
2023-04-18T04:16:46.046Z,4.69
2023-04-18T04:17:50.950Z,4.74
2023-04-18T04:18:55.648Z,4.75
2023-04-18T04:19:57.761Z,4.74
2023-04-18T04:21:03.261Z,4.74
2023-04-18T04:22:05.395Z,4.79
2023-04-18T04:23:10.227Z,4.71
2023-04-18T04:24:30.035Z,4.71
2023-04-18T04:25:33.577Z,4.74
2023-04-18T04:26:38.561Z,4.73
2023-04-18T04:27:41.104Z,4.71
2023-04-18T04:28:46.731Z,4.77
2023-04-18T04:29:49.944Z,4.82
2023-04-18T04:30:55.758Z,4.79
2023-04-18T04:31:59.560Z,4.81
2023-04-18T04:33:07.685Z,4.80
2023-04-18T04:34:09.776Z,4.89
2023-04-18T04:35:14.427Z,4.84
2023-04-18T04:36:18.787Z,4.83
2023-04-18T04:37:24.003Z,4.82
2023-04-18T04:38:27.620Z,4.87
2023-04-18T04:39:32.286Z,4.87
2023-04-18T04:40:34.433Z,4.89
2023-04-18T04:41:39.550Z,4.83
2023-04-18T04:42:42.581Z,4.86
2023-04-18T04:43:47.983Z,4.90
2023-04-18T04:44:50.104Z,4.90
2023-04-18T04:45:55.002Z,4.93
2023-04-18T04:46:57.197Z,4.95
2023-04-18T04:48:02.310Z,5.01
2023-04-18T04:49:07.054Z,5.07
2023-04-18T04:50:15.825Z,5.07
2023-04-18T04:51:18.046Z,5.09
2023-04-18T04:52:22.811Z,5.14
2023-04-18T04:53:28.088Z,5.16
2023-04-18T04:54:32.918Z,5.10
2023-04-18T04:55:35.050Z,5.13
2023-04-18T04:56:39.880Z,5.24
2023-04-18T04:57:41.997Z,5.28
2023-04-18T04:58:47.377Z,5.22
2023-04-18T04:59:49.446Z,5.26
2023-04-18T05:00:55.006Z,5.34
2023-04-18T05:01:57.592Z,5.29
2023-04-18T05:03:02.554Z,5.28
2023-04-18T05:04:10.166Z,5.32
2023-04-18T05:07:16.123Z,5.31
2023-04-18T05:08:18.354Z,5.32
2023-04-18T05:09:23.091Z,5.41
2023-04-18T05:10:25.271Z,5.48
2023-04-18T05:11:30.117Z,5.50
2023-04-18T05:12:32.311Z,5.58
2023-04-18T05:13:36.955Z,5.61
2023-04-18T05:14:39.062Z,5.53
2023-04-18T05:15:43.804Z,5.55
2023-04-18T05:16:48.620Z,5.60
2023-04-18T05:17:50.829Z,5.63
2023-04-18T05:18:55.561Z,5.66
2023-04-18T05:20:02.814Z,5.73
2023-04-18T05:21:05.966Z,5.73
2023-04-18T05:22:10.704Z,5.82
2023-04-18T05:23:12.973Z,5.79
2023-04-18T05:24:17.606Z,5.83
2023-04-18T05:25:19.925Z,5.84
2023-04-18T05:26:24.769Z,5.82
2023-04-18T05:27:27.129Z,5.87
2023-04-18T05:28:31.969Z,5.83
2023-04-18T05:29:34.349Z,5.83
2023-04-18T05:30:39.037Z,5.89
2023-04-18T05:31:41.068Z,5.92
2023-04-18T05:32:46.234Z,5.92
2023-04-18T05:33:48.321Z,5.91
2023-04-18T05:34:52.964Z,5.98
2023-04-18T05:35:58.666Z,6.00
2023-04-18T05:37:03.351Z,6.01
2023-04-18T05:38:05.386Z,6.04
2023-04-18T05:39:10.070Z,5.98
2023-04-18T05:40:13.801Z,6.02
2023-04-18T05:41:18.455Z,6.04
2023-04-18T05:42:20.652Z,6.14
2023-04-18T05:43:25.849Z,6.18
2023-04-18T05:44:28.159Z,6.19
2023-04-18T05:45:32.841Z,6.22
2023-04-18T05:46:35.300Z,6.24
2023-04-18T05:47:40.078Z,6.26
2023-04-18T05:48:44.770Z,6.30
2023-04-18T05:49:46.824Z,6.27
2023-04-18T05:50:51.724Z,6.27
2023-04-18T05:51:56.789Z,6.20
2023-04-18T05:53:01.721Z,6.21
2023-04-18T05:54:06.613Z,6.24
2023-04-18T05:55:12.365Z,6.31
2023-04-18T05:56:14.483Z,6.32
2023-04-18T05:57:19.132Z,6.36
2023-04-18T05:58:21.172Z,6.43
2023-04-18T05:59:26.924Z,6.43
2023-04-18T06:00:29.015Z,6.35
2023-04-18T06:01:33.649Z,6.35
2023-04-18T06:02:36.029Z,6.34
2023-04-18T06:03:41.327Z,6.41
2023-04-18T06:04:44.160Z,6.40
2023-04-18T06:05:49.135Z,6.49
2023-04-18T06:06:53.996Z,6.50
2023-04-18T06:08:01.291Z,6.59
2023-04-18T06:09:03.776Z,6.63
2023-04-18T06:10:13.551Z,6.67
2023-04-18T06:11:20.307Z,6.70
2023-04-18T06:12:25.014Z,6.72
2023-04-18T06:13:29.826Z,6.74
2023-04-18T06:14:32.028Z,6.72
2023-04-18T06:15:37.570Z,6.86
2023-04-18T06:16:39.774Z,6.98
2023-04-18T06:17:44.865Z,6.97
2023-04-18T06:18:46.933Z,6.87
2023-04-18T06:19:51.560Z,6.90
2023-04-18T06:20:54.413Z,6.93
2023-04-18T06:21:59.155Z,6.86
2023-04-18T06:23:03.788Z,6.92
2023-04-18T06:24:09.290Z,6.93
2023-04-18T06:25:11.441Z,6.92
2023-04-18T06:26:16.558Z,6.91
2023-04-18T06:27:30.609Z,6.95
2023-04-18T06:28:36.173Z,6.89
2023-04-18T06:29:41.299Z,6.82
2023-04-18T06:30:44.188Z,6.81
2023-04-18T06:31:50.744Z,6.80
2023-04-18T06:32:53.027Z,6.70
2023-04-18T06:33:57.852Z,6.78
2023-04-18T06:35:02.546Z,6.77
2023-04-18T06:36:05.643Z,6.87
2023-04-18T06:37:10.516Z,7.06
2023-04-18T06:38:15.305Z,7.14
2023-04-18T06:39:20.014Z,7.29
2023-04-18T06:40:24.625Z,7.45
2023-04-18T06:41:26.694Z,7.56
2023-04-18T06:42:31.669Z,7.56
2023-04-18T06:43:33.773Z,7.70
2023-04-18T06:44:38.809Z,7.71
2023-04-18T06:45:43.526Z,7.72
2023-04-18T06:46:46.412Z,7.78
2023-04-18T06:47:53.281Z,7.76
2023-04-18T06:48:57.942Z,7.50
2023-04-18T06:50:02.711Z,7.48
2023-04-18T06:51:05.337Z,7.53
2023-04-18T06:52:10.252Z,7.60
2023-04-18T06:53:17.564Z,7.55
2023-04-18T06:54:19.639Z,7.48
2023-04-18T06:55:24.339Z,7.40
2023-04-18T06:56:26.650Z,7.42
2023-04-18T06:57:31.539Z,7.33
2023-04-18T06:58:33.852Z,7.34
2023-04-18T06:59:38.733Z,7.52
2023-04-18T07:00:43.506Z,7.53
2023-04-18T07:01:45.850Z,7.62
2023-04-18T07:02:51.635Z,7.69
2023-04-18T07:03:56.593Z,7.61
2023-04-18T07:04:58.675Z,7.57
2023-04-18T07:06:03.408Z,7.63
2023-04-18T07:07:06.062Z,7.54
2023-04-18T07:08:10.883Z,7.72
2023-04-18T07:09:15.797Z,7.82
2023-04-18T07:10:20.452Z,7.74
2023-04-18T07:11:23.721Z,7.83
2023-04-18T07:12:28.806Z,7.84
2023-04-18T07:13:33.555Z,7.84
2023-04-18T07:14:35.798Z,7.82
2023-04-18T07:15:41.062Z,7.90
2023-04-18T07:16:43.208Z,8.00
2023-04-18T07:17:47.929Z,8.06
2023-04-18T07:18:52.689Z,8.03
2023-04-18T07:19:57.317Z,7.98
2023-04-18T07:21:01.998Z,8.03
2023-04-18T07:22:06.705Z,8.16
2023-04-18T07:23:10.533Z,8.00
2023-04-18T07:24:18.284Z,7.88
2023-04-18T07:25:20.778Z,7.94
2023-04-18T07:26:27.744Z,7.99
2023-04-18T07:27:32.425Z,7.71
2023-04-18T07:28:34.551Z,7.86
2023-04-18T07:29:39.323Z,7.97
2023-04-18T07:30:44.043Z,8.18
2023-04-18T07:31:48.953Z,8.49
2023-04-18T07:32:53.718Z,8.59
2023-04-18T07:33:58.746Z,8.89
2023-04-18T07:35:03.557Z,9.08
2023-04-18T07:36:08.891Z,9.28
2023-04-18T07:37:14.928Z,9.27
2023-04-18T07:38:17.515Z,9.51
2023-04-18T07:39:25.061Z,9.62
2023-04-18T07:40:29.829Z,9.80
2023-04-18T07:41:34.431Z,10.13
2023-04-18T07:42:39.104Z,10.38
2023-04-18T07:43:45.083Z,10.60
2023-04-18T07:44:47.694Z,10.74
2023-04-18T07:45:52.535Z,10.78
2023-04-18T07:46:57.314Z,10.90
2023-04-18T07:48:02.108Z,10.80
2023-04-18T07:49:06.786Z,10.80
2023-04-18T07:50:12.875Z,10.65
2023-04-18T07:51:17.574Z,10.67
2023-04-18T07:52:19.636Z,10.60
2023-04-18T07:53:24.269Z,10.25
2023-04-18T07:54:31.603Z,10.35
2023-04-18T07:55:36.589Z,10.40
2023-04-18T07:56:41.281Z,10.44
2023-04-18T07:57:50.431Z,10.51
2023-04-18T07:58:55.855Z,10.53
2023-04-18T07:59:58.107Z,10.56
2023-04-18T08:01:02.963Z,10.68
2023-04-18T08:02:08.046Z,10.73
2023-04-18T08:03:12.546Z,10.72
2023-04-18T08:04:17.954Z,10.85
2023-04-18T08:05:22.969Z,10.78
2023-04-18T08:06:26.431Z,10.87
2023-04-18T08:07:31.502Z,10.87
2023-04-18T08:08:33.796Z,10.76
2023-04-18T08:09:41.383Z,10.82
2023-04-18T08:10:46.301Z,10.70
2023-04-18T08:11:48.469Z,10.71
2023-04-18T08:12:53.206Z,10.60
2023-04-18T08:13:55.445Z,10.52
2023-04-18T08:15:00.390Z,10.66
2023-04-18T08:16:03.344Z,10.76
2023-04-18T08:19:00.968Z,10.46
2023-04-18T08:20:07.323Z,10.44
2023-04-18T08:21:12.032Z,10.35
2023-04-18T08:22:14.146Z,10.32
2023-04-18T08:23:18.828Z,10.26
2023-04-18T08:24:23.885Z,10.32
2023-04-18T08:25:28.632Z,10.22
2023-04-18T08:26:33.352Z,10.02
2023-04-18T08:27:35.476Z,9.99
2023-04-18T08:28:40.211Z,9.95
2023-04-18T08:29:45.079Z,9.54
2023-04-18T08:30:49.241Z,9.59
2023-04-18T08:31:54.102Z,9.44
2023-04-18T08:32:58.935Z,9.50
2023-04-18T08:34:05.047Z,9.51
2023-04-18T08:35:08.228Z,9.60
2023-04-18T08:36:13.112Z,9.71
2023-04-18T08:37:15.362Z,9.75
2023-04-18T08:38:20.651Z,9.56
2023-04-18T08:39:24.244Z,9.53
2023-04-18T08:40:32.803Z,9.65
2023-04-18T08:41:37.494Z,9.67
2023-04-18T08:42:45.820Z,9.79
2023-04-18T08:43:48.574Z,9.63
2023-04-18T08:44:54.178Z,9.58
2023-04-18T08:46:02.070Z,9.52
2023-04-18T08:47:04.429Z,9.41
2023-04-18T08:48:09.482Z,9.47
2023-04-18T08:49:14.294Z,9.39
2023-04-18T08:50:19.922Z,9.52
2023-04-18T08:51:24.724Z,9.52
2023-04-18T08:52:29.716Z,9.63
2023-04-18T08:53:36.985Z,9.68
2023-04-18T08:54:42.202Z,9.96
2023-04-18T08:55:50.871Z,10.08
2023-04-18T08:57:04.830Z,10.16
2023-04-18T08:58:09.537Z,10.12
2023-04-18T08:59:15.056Z,10.35
2023-04-18T09:00:21.231Z,10.49
2023-04-18T09:01:26.050Z,10.67
2023-04-18T09:02:43.112Z,10.74
2023-04-18T09:03:47.977Z,10.70
2023-04-18T09:04:52.873Z,11.08
2023-04-18T09:06:09.942Z,11.20
2023-04-18T09:07:16.399Z,11.47
2023-04-18T09:08:23.852Z,11.65
2023-04-18T09:09:28.984Z,11.84
2023-04-18T09:10:38.523Z,11.93
2023-04-18T09:11:43.316Z,12.05
2023-04-18T09:12:50.763Z,12.38
2023-04-18T09:13:56.078Z,12.57
2023-04-18T09:15:13.470Z,12.69
2023-04-18T09:16:15.550Z,12.68
2023-04-18T09:17:35.138Z,12.52
2023-04-18T09:18:37.261Z,12.61
2023-04-18T09:19:50.313Z,12.62
2023-04-18T09:20:55.190Z,12.25
2023-04-18T09:22:02.286Z,12.59
2023-04-18T09:23:10.776Z,12.71
2023-04-18T09:24:24.418Z,12.67
2023-04-18T09:25:34.849Z,12.72
2023-04-18T09:26:37.255Z,12.61
2023-04-18T09:27:44.736Z,12.54
2023-04-18T09:28:55.546Z,12.43
2023-04-18T09:30:01.107Z,11.82
2023-04-18T09:31:13.118Z,11.97
2023-04-18T09:32:27.286Z,11.69
2023-04-18T09:33:34.007Z,11.68
2023-04-18T09:34:42.658Z,11.79
2023-04-18T09:35:47.358Z,11.90
2023-04-18T09:37:06.058Z,12.06
2023-04-18T09:38:11.022Z,12.13
2023-04-18T09:39:27.750Z,12.23
2023-04-18T09:40:32.436Z,12.24
2023-04-18T09:41:34.499Z,12.28
2023-04-18T09:42:39.494Z,12.34
2023-04-18T09:43:45.406Z,12.32
2023-04-18T09:45:05.128Z,12.35
2023-04-18T09:46:10.907Z,12.16
2023-04-18T09:47:12.990Z,12.22
2023-04-18T09:48:17.814Z,12.27
2023-04-18T09:49:20.351Z,12.34
2023-04-18T09:50:25.057Z,12.47
2023-04-18T09:51:27.556Z,12.58
2023-04-18T09:52:36.716Z,12.67
2023-04-18T09:53:44.776Z,12.84
2023-04-18T09:54:48.669Z,12.93
2023-04-18T09:55:57.647Z,13.17
2023-04-18T09:57:03.064Z,13.19
2023-04-18T09:58:08.965Z,13.41
2023-04-18T09:59:21.100Z,13.60
2023-04-18T10:00:28.101Z,13.36
2023-04-18T10:01:31.046Z,13.49
2023-04-18T10:02:43.772Z,13.52
2023-04-18T10:03:52.081Z,13.43
2023-04-18T10:04:56.338Z,13.38
2023-04-18T10:06:14.593Z,13.16
2023-04-18T10:07:19.931Z,13.26
2023-04-18T10:08:26.210Z,13.01
2023-04-18T10:09:34.707Z,13.15
2023-04-18T10:10:39.606Z,13.02
2023-04-18T10:11:42.013Z,13.41
2023-04-18T10:12:48.173Z,13.47
2023-04-18T10:13:56.462Z,13.81
2023-04-18T10:15:02.007Z,13.87
2023-04-18T10:16:07.695Z,14.04
2023-04-18T10:17:10.506Z,13.79
2023-04-18T10:18:18.550Z,13.92
2023-04-18T10:19:21.935Z,14.16
2023-04-18T10:20:27.966Z,14.36
2023-04-18T10:21:31.122Z,14.79
2023-04-18T10:22:36.195Z,14.69
2023-04-18T10:23:40.101Z,15.08
2023-04-18T10:24:53.630Z,15.05
2023-04-18T10:25:58.470Z,15.17
2023-04-18T10:27:00.649Z,15.18
2023-04-18T10:28:07.000Z,15.39
2023-04-18T10:29:11.881Z,15.45
2023-04-18T10:30:17.277Z,15.41
2023-04-18T10:31:23.465Z,15.47
2023-04-18T10:32:25.748Z,15.56
2023-04-18T10:33:33.749Z,14.87
2023-04-18T10:34:39.994Z,14.54
2023-04-18T10:35:56.944Z,14.49
2023-04-18T10:37:08.292Z,14.31
2023-04-18T10:38:16.961Z,13.91
2023-04-18T10:39:26.174Z,13.83
2023-04-18T10:40:35.130Z,13.50
2023-04-18T10:41:51.711Z,13.43
2023-04-18T10:42:59.866Z,13.45
2023-04-18T10:44:24.743Z,13.39
2023-04-18T10:45:33.702Z,13.50
2023-04-18T10:46:38.975Z,13.54
2023-04-18T10:47:43.952Z,13.75
2023-04-18T10:49:18.548Z,13.56
2023-04-18T10:50:23.332Z,13.19
2023-04-18T10:51:26.382Z,13.29
2023-04-18T10:52:32.198Z,13.21
2023-04-18T10:53:34.338Z,13.29
2023-04-18T10:54:44.808Z,13.33
2023-04-18T10:55:54.705Z,13.36
2023-04-18T10:57:01.998Z,13.36
2023-04-18T10:58:06.831Z,13.16
2023-04-18T10:59:12.662Z,13.31
2023-04-18T11:00:21.936Z,13.25
2023-04-18T11:01:32.602Z,13.40
2023-04-18T11:02:39.354Z,13.59
2023-04-18T11:03:44.433Z,13.87
2023-04-18T11:04:50.646Z,14.08
2023-04-18T11:06:04.684Z,14.27
2023-04-18T11:07:09.692Z,14.06
2023-04-18T11:08:26.626Z,13.81
2023-04-18T11:09:28.868Z,13.75
2023-04-18T11:10:33.648Z,13.60
2023-04-18T11:11:42.010Z,13.29
2023-04-18T11:12:46.650Z,12.95
2023-04-18T11:13:56.591Z,12.85
2023-04-18T11:15:02.270Z,12.42
2023-04-18T11:16:07.571Z,12.47
2023-04-18T11:17:19.839Z,12.47
2023-04-18T11:18:24.412Z,12.40
2023-04-18T11:19:26.941Z,12.39
2023-04-18T11:20:32.305Z,12.35
2023-04-18T11:21:34.482Z,12.26
2023-04-18T11:22:48.285Z,12.31
2023-04-18T11:23:52.991Z,12.35
2023-04-18T11:24:58.453Z,12.44
2023-04-18T11:26:03.611Z,12.48
2023-04-18T11:27:06.405Z,12.54
2023-04-18T11:28:13.732Z,12.78
2023-04-18T11:29:18.169Z,13.14
2023-04-18T11:30:22.850Z,13.39
2023-04-18T11:31:25.743Z,13.54
2023-04-18T11:32:33.300Z,13.55
2023-04-18T11:33:38.001Z,13.63
2023-04-18T11:34:40.068Z,13.54
2023-04-18T11:35:46.509Z,13.77
2023-04-18T11:36:52.819Z,14.07
2023-04-18T11:37:57.687Z,14.01
2023-04-18T11:38:59.913Z,14.18
2023-04-18T11:40:05.549Z,14.15
2023-04-18T11:41:16.036Z,14.63
2023-04-18T11:42:18.222Z,14.77
2023-04-18T11:43:24.254Z,14.81
2023-04-18T11:44:27.218Z,14.84
2023-04-18T11:45:32.220Z,15.01
2023-04-18T11:46:38.454Z,14.93
2023-04-18T11:47:46.580Z,15.07
2023-04-18T11:48:50.686Z,14.92
2023-04-18T11:49:59.930Z,15.01
2023-04-18T11:51:04.625Z,14.94
2023-04-18T11:52:15.255Z,14.86
2023-04-18T11:53:34.716Z,14.91
2023-04-18T11:54:40.697Z,14.88
2023-04-18T11:55:57.322Z,14.77
2023-04-18T11:56:59.358Z,15.02
2023-04-18T11:58:04.849Z,15.04
2023-04-18T11:59:09.288Z,15.13
2023-04-18T12:00:15.771Z,15.14
2023-04-18T12:01:19.535Z,15.57
2023-04-18T12:02:25.432Z,15.39
2023-04-18T12:03:32.825Z,15.54
2023-04-18T12:04:52.202Z,15.32
2023-04-18T12:06:02.488Z,15.35
2023-04-18T12:07:05.105Z,15.45
2023-04-18T12:08:11.623Z,15.35
2023-04-18T12:09:14.506Z,15.14
2023-04-18T12:10:28.619Z,14.90
2023-04-18T12:11:30.861Z,14.78
2023-04-18T12:12:36.137Z,14.67
2023-04-18T12:13:40.902Z,14.74
2023-04-18T12:14:42.925Z,14.97
2023-04-18T12:15:48.975Z,15.01
2023-04-18T12:16:51.571Z,15.05
2023-04-18T12:18:00.768Z,15.14
2023-04-18T12:19:06.441Z,15.06
2023-04-18T12:20:13.528Z,15.08
2023-04-18T12:21:18.803Z,15.34
2023-04-18T12:22:24.066Z,15.28
2023-04-18T12:23:33.994Z,15.50
2023-04-18T12:24:38.660Z,15.72
2023-04-18T12:25:43.427Z,15.95
2023-04-18T12:26:46.278Z,15.88
2023-04-18T12:27:56.198Z,16.01
2023-04-18T12:29:03.754Z,16.16
2023-04-18T12:30:07.304Z,16.16
2023-04-18T12:31:12.068Z,16.24
2023-04-18T12:32:14.154Z,16.40
2023-04-18T12:33:19.716Z,16.39
2023-04-18T12:34:27.039Z,15.71
2023-04-18T12:35:30.651Z,15.89
2023-04-18T12:36:35.551Z,16.02
2023-04-18T12:37:37.745Z,16.03
2023-04-18T12:38:42.471Z,15.98
2023-04-18T12:39:44.551Z,15.98
2023-04-18T12:40:49.266Z,15.91
2023-04-18T12:41:51.429Z,16.02
2023-04-18T12:42:57.353Z,16.08
2023-04-18T12:44:02.582Z,15.90
2023-04-18T12:45:07.855Z,15.97
2023-04-18T12:46:12.777Z,15.98
2023-04-18T12:47:14.945Z,16.18
2023-04-18T12:48:19.673Z,16.11
2023-04-18T12:49:24.322Z,16.47
2023-04-18T12:50:30.446Z,16.74
2023-04-18T12:51:32.556Z,16.82
2023-04-18T12:52:38.211Z,16.70
2023-04-18T12:53:42.894Z,16.45
2023-04-18T12:54:44.977Z,16.23
2023-04-18T12:55:49.629Z,16.32
2023-04-18T12:56:54.242Z,16.67
2023-04-18T12:57:59.072Z,16.66
2023-04-18T12:59:01.104Z,16.94
2023-04-18T13:00:10.640Z,17.28
2023-04-18T13:01:14.553Z,17.57
2023-04-18T13:02:19.487Z,17.62
2023-04-18T13:03:24.434Z,17.16
2023-04-18T13:04:29.580Z,16.55
2023-04-18T13:05:34.695Z,16.43
2023-04-18T13:06:37.876Z,15.84
2023-04-18T13:07:43.720Z,15.91
2023-04-18T13:08:48.454Z,15.19
2023-04-18T13:09:51.051Z,15.32
2023-04-18T13:10:55.791Z,15.24
2023-04-18T13:11:57.862Z,15.37
2023-04-18T13:13:02.606Z,15.31
2023-04-18T13:14:04.771Z,15.25
2023-04-18T13:15:11.020Z,15.19
2023-04-18T13:16:16.378Z,15.09
2023-04-18T13:17:18.576Z,14.98
2023-04-18T13:18:23.272Z,14.83
2023-04-18T13:19:25.593Z,14.34
2023-04-18T13:20:32.955Z,14.07
2023-04-18T13:21:37.848Z,14.07
2023-04-18T13:22:43.261Z,13.95
2023-04-18T13:23:45.491Z,14.04
2023-04-18T13:24:50.141Z,13.87
2023-04-18T13:25:54.821Z,13.88
2023-04-18T13:26:57.097Z,13.63
2023-04-18T13:28:02.185Z,13.69
2023-04-18T13:29:05.051Z,13.42
2023-04-18T13:30:14.200Z,13.41
2023-04-18T13:31:17.149Z,13.47
2023-04-18T13:32:22.129Z,13.40
2023-04-18T13:33:26.803Z,13.41
2023-04-18T13:34:28.891Z,13.21
2023-04-18T13:35:36.174Z,13.32
2023-04-18T13:36:38.654Z,13.54
2023-04-18T13:37:44.815Z,13.62
2023-04-18T13:38:49.721Z,13.81
2023-04-18T13:39:52.057Z,13.93
2023-04-18T13:41:10.878Z,13.69
2023-04-18T13:42:18.781Z,13.87
2023-04-18T13:43:22.120Z,13.88
2023-04-18T13:44:33.470Z,14.00
2023-04-18T13:45:38.205Z,13.93
2023-04-18T13:46:40.805Z,14.25
2023-04-18T13:47:45.497Z,14.34
2023-04-18T13:48:47.547Z,14.37
2023-04-18T13:49:52.778Z,14.63
2023-04-18T13:51:00.134Z,14.83
2023-04-18T13:52:05.157Z,15.13
2023-04-18T13:53:10.591Z,15.31
2023-04-18T13:54:15.663Z,15.19
2023-04-18T13:55:20.488Z,15.08
2023-04-18T13:56:23.042Z,15.33
2023-04-18T13:57:28.634Z,15.42
2023-04-18T13:58:30.767Z,15.56
2023-04-18T13:59:35.470Z,15.70
2023-04-18T14:00:40.096Z,15.83
2023-04-18T14:01:43.016Z,16.00
2023-04-18T14:02:47.778Z,16.20
2023-04-18T14:03:50.511Z,16.17
2023-04-18T14:04:55.874Z,16.49
2023-04-18T14:06:03.227Z,16.52
2023-04-18T14:07:09.428Z,16.94
2023-04-18T14:08:11.546Z,17.25
2023-04-18T14:09:16.579Z,17.35
2023-04-18T14:10:21.829Z,17.42
2023-04-18T14:11:23.948Z,16.86
2023-04-18T14:12:28.610Z,16.66
2023-04-18T14:15:59.939Z,16.25
2023-04-18T14:17:04.615Z,16.11
2023-04-18T14:18:09.333Z,16.12
2023-04-18T14:19:14.107Z,16.02
2023-04-18T14:20:19.406Z,15.92
2023-04-18T14:21:27.170Z,15.86
2023-04-18T14:22:29.278Z,15.76